Jackie — WDF2439 — position and weather

sailwx.info

Track history (hours):
 
Tides and Currents Weather Stations Pressure Air Temp Water Temp Dewpoint Dewpoint Depression Visibility Wind Speed Wind Dir Waves Ship Positions

Jackie

Owner: Enterprise Marine Services, LLC, San Antonio, TX. More information available from US FCC via Universal Licensing System and Coast Guard Vessel Documentation Center.

Last reported at 2018-Feb-19 12:00 UTC. Time now 2018-Feb-19 12:07 UTC.
Position N 29°35' W 090°39'.

Length 24 m; draft 3.3 m.

Type: . MMSI: 367050250.

Date/timePositionNaut miles runAvg speedWind from/ knotsBaromVisibWave heightAir tempDewpointWater temp
2018-Feb-19 12:00N 29°35' W 090°39'0 0.0
2018-Feb-19 11:11N 29°35' W 090°39'0 0.0
2018-Feb-19 10:49N 29°35' W 090°39'0 0.0
2018-Feb-19 10:30N 29°35' W 090°39'0 0.0
2018-Feb-19 10:00N 29°35' W 090°39'0 0.0
2018-Feb-19 09:30N 29°35' W 090°39'2 4.5
2018-Feb-19 09:01N 29°36' W 090°41'2 3.1
2018-Feb-19 08:31N 29°36' W 090°43'2 3.3
2018-Feb-19 08:00N 29°34' W 090°43'0 0.0
2018-Feb-19 07:30N 29°34' W 090°43'0 0.0
2018-Feb-19 07:01N 29°34' W 090°43'0 0.5
2018-Feb-19 06:31N 29°34' W 090°43'0 0.6
2018-Feb-19 06:01N 29°34' W 090°43'0 0.0
2018-Feb-19 05:31N 29°34' W 090°43'0 0.0
2018-Feb-19 05:01N 29°34' W 090°43'0 0.0
2018-Feb-19 04:30N 29°34' W 090°43'0 0.0
2018-Feb-19 04:00N 29°34' W 090°43'0 0.0
2018-Feb-19 03:31N 29°34' W 090°43'0 0.0
2018-Feb-19 03:01N 29°34' W 090°43'0 0.0
2018-Feb-19 02:30N 29°34' W 090°43'0 0.0
2018-Feb-19 02:01N 29°34' W 090°43'0 0.0
2018-Feb-19 01:31N 29°34' W 090°43'0 0.0
2018-Feb-19 01:01N 29°34' W 090°43'0 0.0
2018-Feb-19 00:30N 29°34' W 090°43'0 0.0
2018-Feb-19 00:01N 29°34' W 090°43'0 0.0
2018-Feb-18 23:31N 29°34' W 090°43'0 0.0
2018-Feb-18 23:00N 29°34' W 090°43'0 0.1
2018-Feb-18 22:31N 29°34' W 090°43'0 0.3
2018-Feb-18 22:01N 29°34' W 090°43'0 0.1
2018-Feb-18 21:30N 29°34' W 090°43'1 1.7
2018-Feb-18 21:01N 29°34' W 090°44'0 0.4
2018-Feb-18 20:28N 29°34' W 090°44'2 3.5
2018-Feb-18 20:01N 29°33' W 090°45'3 6.6
2018-Feb-18 19:30N 29°32' W 090°49'5 8.3
2018-Feb-18 18:57N 29°33' W 090°54'  
2018-Feb-13 10:06N 29°56' W 093°05'1 4.4
2018-Feb-13 09:59N 29°56' W 093°06'2 4.4
2018-Feb-13 09:30N 29°56' W 093°08'2 4.0
2018-Feb-13 08:58N 29°57' W 093°10'2 3.6
2018-Feb-13 08:30N 29°58' W 093°11'2 4.6
2018-Feb-13 07:59N 29°60' W 093°13'2 4.2
2018-Feb-13 07:28N 30°02' W 093°15'1 2.9
2018-Feb-13 07:00N 30°03' W 093°16'2 4.1
2018-Feb-13 06:30N 30°05' W 093°17'2 3.2
2018-Feb-13 06:00N 30°06' W 093°18'1 1.5
2018-Feb-13 05:26N 30°06' W 093°19'0 0.3
2018-Feb-13 05:00N 30°06' W 093°19'2 4.8
2018-Feb-13 04:30N 30°04' W 093°21'2 4.5
2018-Feb-13 04:00N 30°04' W 093°23'3 5.2
2018-Feb-13 03:30N 30°04' W 093°26'3 5.2
2018-Feb-13 03:00N 30°04' W 093°29'11 4.7
2018-Feb-13 00:42N 30°03' W 093°42'1 4.0
2018-Feb-13 00:28N 30°03' W 093°43'3 5.7
2018-Feb-13 00:00N 30°01' W 093°45'3 6.0
2018-Feb-12 23:31N 29°59' W 093°48'3 6.5
2018-Feb-12 23:01N 29°58' W 093°51'1 1.0
2018-Feb-12 22:30N 29°59' W 093°52'0 0.0
2018-Feb-12 22:00N 29°59' W 093°52'1 1.0
2018-Feb-12 21:30N 29°59' W 093°52'1 2.6
2018-Feb-12 20:58N 29°59' W 093°54'2 3.8
2018-Feb-12 20:30N 29°59' W 093°56'3 5.3
2018-Feb-12 20:00N 30°01' W 093°58'3 6.6
2018-Feb-12 19:31N 30°02' W 094°02'0 0.0
2018-Feb-12 18:59N 30°02' W 094°02'0 0.0
2018-Feb-12 18:23N 30°02' W 094°02'0 0.0
2018-Feb-12 17:59N 30°02' W 094°02'0 0.0
2018-Feb-12 17:29N 30°02' W 094°02'0 0.0
2018-Feb-12 16:59N 30°02' W 094°02'0 0.0
2018-Feb-12 16:29N 30°02' W 094°02'0 0.0
2018-Feb-12 15:59N 30°02' W 094°02'0 0.0
2018-Feb-12 15:17N 30°02' W 094°02'0 0.0
2018-Feb-12 14:59N 30°02' W 094°02'0 0.0
2018-Feb-12 14:29N 30°02' W 094°02'0 0.0
2018-Feb-12 13:59N 30°02' W 094°02'0 0.0
2018-Feb-12 13:29N 30°02' W 094°02'0 0.0
2018-Feb-12 12:59N 30°02' W 094°02'0 0.0
2018-Feb-12 02:06N 30°02' W 094°02'0 0.0
2018-Feb-12 02:00N 30°02' W 094°02'0 1.0
2018-Feb-12 01:30N 30°01' W 094°02'3 6.3
2018-Feb-12 01:00N 30°01' W 093°58'3 6.2
2018-Feb-12 00:31N 29°59' W 093°55'3 6.3
2018-Feb-12 00:00N 29°58' W 093°51'1 2.5
2018-Feb-11 23:31N 29°57' W 093°52'0 0.7
2018-Feb-11 23:00N 29°57' W 093°52'0 0.0
2018-Feb-11 22:30N 29°57' W 093°52'0 0.0
2018-Feb-11 22:00N 29°57' W 093°52'0 0.0
2018-Feb-11 21:30N 29°57' W 093°52'0 0.1
2018-Feb-11 21:00N 29°57' W 093°52'1 2.1
2018-Feb-11 20:26N 29°56' W 093°52'3 7.5
2018-Feb-11 20:01N 29°54' W 093°54'4 7.5
2018-Feb-11 19:30N 29°51' W 093°57'2 4.9
2018-Feb-11 19:01N 29°49' W 093°59'0 0.1
2018-Feb-11 18:30N 29°49' W 093°59'0 0.0
2018-Feb-11 18:00N 29°49' W 093°59'0 0.0
2018-Feb-11 17:30N 29°49' W 093°59'0 0.0
2018-Feb-11 17:00N 29°49' W 093°59'0 0.0
2018-Feb-11 16:27N 29°49' W 093°59'1 2.0
2018-Feb-11 16:00N 29°49' W 093°60'3 7.0
2018-Feb-11 15:30N 29°46' W 094°03'3 6.8
2018-Feb-11 15:00N 29°44' W 094°06'3 6.8
2018-Feb-11 14:30N 29°42' W 094°09'3 5.9
2018-Feb-11 14:00N 29°41' W 094°12'2 4.0
2018-Feb-11 13:30N 29°40' W 094°14'2 4.4
2018-Feb-11 13:00N 29°39' W 094°16'2 4.2
2018-Feb-11 12:30N 29°38' W 094°19'2 3.7
2018-Feb-11 12:00N 29°37' W 094°20'0 0.0
2018-Feb-11 10:21N 29°37' W 094°20'0 0.0
2018-Feb-11 10:00N 29°37' W 094°20'3 0.6
2018-Feb-11 04:32N 29°36' W 094°24'0 6.0
2018-Feb-11 04:29N 29°36' W 094°24'27 2.7
2018-Feb-10 18:29N 29°34' W 094°55'3 7.4
2018-Feb-10 18:01N 29°36' W 094°57'3 6.2
2018-Feb-10 17:30N 29°39' W 094°58'  
Track history (hours):
 
Tides and Currents Weather Stations Pressure Air Temp Water Temp Dewpoint Dewpoint Depression Visibility Wind Speed Wind Dir Waves Ship Positions

Jackie

Owner: Enterprise Marine Services, LLC, San Antonio, TX. More information available from US FCC via Universal Licensing System and Coast Guard Vessel Documentation Center.

Last reported at 2018-Feb-19 12:00 UTC. Time now 2018-Feb-19 12:07 UTC.
Position N 29°35' W 090°39'.

Length 24 m; draft 3.3 m.

Type: . MMSI: 367050250.

Date/timePositionNaut miles runAvg speedWind from/ knotsBaromVisibWave heightAir tempDewpointWater temp
2018-Feb-19 12:00N 29°35' W 090°39'0 0.0
2018-Feb-19 11:11N 29°35' W 090°39'0 0.0
2018-Feb-19 10:49N 29°35' W 090°39'0 0.0
2018-Feb-19 10:30N 29°35' W 090°39'0 0.0
2018-Feb-19 10:00N 29°35' W 090°39'0 0.0
2018-Feb-19 09:30N 29°35' W 090°39'2 4.5
2018-Feb-19 09:01N 29°36' W 090°41'2 3.1
2018-Feb-19 08:31N 29°36' W 090°43'2 3.3
2018-Feb-19 08:00N 29°34' W 090°43'0 0.0
2018-Feb-19 07:30N 29°34' W 090°43'0 0.0
2018-Feb-19 07:01N 29°34' W 090°43'0 0.5
2018-Feb-19 06:31N 29°34' W 090°43'0 0.6
2018-Feb-19 06:01N 29°34' W 090°43'0 0.0
2018-Feb-19 05:31N 29°34' W 090°43'0 0.0
2018-Feb-19 05:01N 29°34' W 090°43'0 0.0
2018-Feb-19 04:30N 29°34' W 090°43'0 0.0
2018-Feb-19 04:00N 29°34' W 090°43'0 0.0
2018-Feb-19 03:31N 29°34' W 090°43'0 0.0
2018-Feb-19 03:01N 29°34' W 090°43'0 0.0
2018-Feb-19 02:30N 29°34' W 090°43'0 0.0
2018-Feb-19 02:01N 29°34' W 090°43'0 0.0
2018-Feb-19 01:31N 29°34' W 090°43'0 0.0
2018-Feb-19 01:01N 29°34' W 090°43'0 0.0
2018-Feb-19 00:30N 29°34' W 090°43'0 0.0
2018-Feb-19 00:01N 29°34' W 090°43'0 0.0
2018-Feb-18 23:31N 29°34' W 090°43'0 0.0
2018-Feb-18 23:00N 29°34' W 090°43'0 0.1
2018-Feb-18 22:31N 29°34' W 090°43'0 0.3
2018-Feb-18 22:01N 29°34' W 090°43'0 0.1
2018-Feb-18 21:30N 29°34' W 090°43'1 1.7
2018-Feb-18 21:01N 29°34' W 090°44'0 0.4
2018-Feb-18 20:28N 29°34' W 090°44'2 3.5
2018-Feb-18 20:01N 29°33' W 090°45'3 6.6
2018-Feb-18 19:30N 29°32' W 090°49'5 8.3
2018-Feb-18 18:57N 29°33' W 090°54'  
2018-Feb-13 10:06N 29°56' W 093°05'1 4.4
2018-Feb-13 09:59N 29°56' W 093°06'2 4.4
2018-Feb-13 09:30N 29°56' W 093°08'2 4.0
2018-Feb-13 08:58N 29°57' W 093°10'2 3.6
2018-Feb-13 08:30N 29°58' W 093°11'2 4.6
2018-Feb-13 07:59N 29°60' W 093°13'2 4.2
2018-Feb-13 07:28N 30°02' W 093°15'1 2.9
2018-Feb-13 07:00N 30°03' W 093°16'2 4.1
2018-Feb-13 06:30N 30°05' W 093°17'2 3.2
2018-Feb-13 06:00N 30°06' W 093°18'1 1.5
2018-Feb-13 05:26N 30°06' W 093°19'0 0.3
2018-Feb-13 05:00N 30°06' W 093°19'2 4.8
2018-Feb-13 04:30N 30°04' W 093°21'2 4.5
2018-Feb-13 04:00N 30°04' W 093°23'3 5.2
2018-Feb-13 03:30N 30°04' W 093°26'3 5.2
2018-Feb-13 03:00N 30°04' W 093°29'11 4.7
2018-Feb-13 00:42N 30°03' W 093°42'1 4.0
2018-Feb-13 00:28N 30°03' W 093°43'3 5.7
2018-Feb-13 00:00N 30°01' W 093°45'3 6.0
2018-Feb-12 23:31N 29°59' W 093°48'3 6.5
2018-Feb-12 23:01N 29°58' W 093°51'1 1.0
2018-Feb-12 22:30N 29°59' W 093°52'0 0.0
2018-Feb-12 22:00N 29°59' W 093°52'1 1.0
2018-Feb-12 21:30N 29°59' W 093°52'1 2.6
2018-Feb-12 20:58N 29°59' W 093°54'2 3.8
2018-Feb-12 20:30N 29°59' W 093°56'3 5.3
2018-Feb-12 20:00N 30°01' W 093°58'3 6.6
2018-Feb-12 19:31N 30°02' W 094°02'0 0.0
2018-Feb-12 18:59N 30°02' W 094°02'0 0.0
2018-Feb-12 18:23N 30°02' W 094°02'0 0.0
2018-Feb-12 17:59N 30°02' W 094°02'0 0.0
2018-Feb-12 17:29N 30°02' W 094°02'0 0.0
2018-Feb-12 16:59N 30°02' W 094°02'0 0.0
2018-Feb-12 16:29N 30°02' W 094°02'0 0.0
2018-Feb-12 15:59N 30°02' W 094°02'0 0.0
2018-Feb-12 15:17N 30°02' W 094°02'0 0.0
2018-Feb-12 14:59N 30°02' W 094°02'0 0.0
2018-Feb-12 14:29N 30°02' W 094°02'0 0.0
2018-Feb-12 13:59N 30°02' W 094°02'0 0.0
2018-Feb-12 13:29N 30°02' W 094°02'0 0.0
2018-Feb-12 12:59N 30°02' W 094°02'0 0.0
2018-Feb-12 02:06N 30°02' W 094°02'0 0.0
2018-Feb-12 02:00N 30°02' W 094°02'0 1.0
2018-Feb-12 01:30N 30°01' W 094°02'3 6.3
2018-Feb-12 01:00N 30°01' W 093°58'3 6.2
2018-Feb-12 00:31N 29°59' W 093°55'3 6.3
2018-Feb-12 00:00N 29°58' W 093°51'1 2.5
2018-Feb-11 23:31N 29°57' W 093°52'0 0.7
2018-Feb-11 23:00N 29°57' W 093°52'0 0.0
2018-Feb-11 22:30N 29°57' W 093°52'0 0.0
2018-Feb-11 22:00N 29°57' W 093°52'0 0.0
2018-Feb-11 21:30N 29°57' W 093°52'0 0.1
2018-Feb-11 21:00N 29°57' W 093°52'1 2.1
2018-Feb-11 20:26N 29°56' W 093°52'3 7.5
2018-Feb-11 20:01N 29°54' W 093°54'4 7.5
2018-Feb-11 19:30N 29°51' W 093°57'2 4.9
2018-Feb-11 19:01N 29°49' W 093°59'0 0.1
2018-Feb-11 18:30N 29°49' W 093°59'0 0.0
2018-Feb-11 18:00N 29°49' W 093°59'0 0.0
2018-Feb-11 17:30N 29°49' W 093°59'0 0.0
2018-Feb-11 17:00N 29°49' W 093°59'0 0.0
2018-Feb-11 16:27N 29°49' W 093°59'1 2.0
2018-Feb-11 16:00N 29°49' W 093°60'3 7.0
2018-Feb-11 15:30N 29°46' W 094°03'3 6.8
2018-Feb-11 15:00N 29°44' W 094°06'3 6.8
2018-Feb-11 14:30N 29°42' W 094°09'3 5.9
2018-Feb-11 14:00N 29°41' W 094°12'2 4.0
2018-Feb-11 13:30N 29°40' W 094°14'2 4.4
2018-Feb-11 13:00N 29°39' W 094°16'2 4.2
2018-Feb-11 12:30N 29°38' W 094°19'2 3.7
2018-Feb-11 12:00N 29°37' W 094°20'0 0.0
2018-Feb-11 10:21N 29°37' W 094°20'0 0.0
2018-Feb-11 10:00N 29°37' W 094°20'3 0.6
2018-Feb-11 04:32N 29°36' W 094°24'0 6.0
2018-Feb-11 04:29N 29°36' W 094°24'27 2.7
2018-Feb-10 18:29N 29°34' W 094°55'3 7.4
2018-Feb-10 18:01N 29°36' W 094°57'3 6.2
2018-Feb-10 17:30N 29°39' W 094°58'  

Dump ship's entire track history